Time;durP1;ratioP1;P1;durP2;ratioP2;P2;SDS_P1;SDS_P2;PMS_P1;PMS_P2;Temp;Humidity;BMP_temperature;BMP_pressure;BME280_temperature;BME280_humidity;BME280_pressure;Samples;Min_cycle;Max_cycle;Signal;HPM_P1;HPM_P2
2022/06/21 00:02:13;;;;;;;3.83;2.20;;;;;;;21.63;48.05;99348.31;1749373;82;21832;-68
2022/06/21 00:04:41;;;;;;;5.00;2.17;;;;;;;21.54;48.53;99345.81;1740939;81;21530;-67
2022/06/21 00:07:12;;;;;;;3.10;1.97;;;;;;;21.44;48.90;99338.25;1740914;81;21052;-67
2022/06/21 00:09:40;;;;;;;3.23;2.10;;;;;;;21.38;49.13;99337.55;1748085;80;21604;-68
2022/06/21 00:12:12;;;;;;;3.47;2.27;;;;;;;21.30;49.41;99330.59;1741822;81;21033;-67
2022/06/21 00:14:40;;;;;;;4.47;2.23;;;;;;;21.24;49.78;99337.45;1727917;81;21086;-68
2022/06/21 00:17:12;;;;;;;3.00;1.80;;;;;;;21.18;50.02;99334.02;1734435;81;21475;-67
2022/06/21 00:19:43;;;;;;;3.83;2.00;;;;;;;21.11;49.87;99333.89;1738838;81;21024;-67
2022/06/21 00:22:14;;;;;;;4.37;2.07;;;;;;;21.08;49.71;99327.23;1750316;81;21000;-67
2022/06/21 00:24:41;;;;;;;3.27;1.87;;;;;;;21.05;49.23;99325.23;1706724;82;21700;-67
2022/06/21 00:27:16;;;;;;;3.50;1.97;;;;;;;21.08;48.02;99323.16;1743514;80;21482;-67
2022/06/21 00:29:44;;;;;;;3.37;1.97;;;;;;;21.15;47.75;99329.30;1743523;81;21023;-68
2022/06/21 00:32:16;;;;;;;3.97;1.60;;;;;;;21.23;47.07;99323.67;1733220;81;21054;-67
2022/06/21 00:34:43;;;;;;;3.20;1.93;;;;;;;21.35;46.50;99323.32;1741820;80;21014;-66
2022/06/21 00:37:18;;;;;;;3.97;2.00;;;;;;;21.41;45.98;99317.23;1747738;81;21211;-67
2022/06/21 00:39:44;;;;;;;3.07;1.90;;;;;;;21.48;45.45;99313.28;1749127;82;21241;-68
2022/06/21 00:42:26;;;;;;;3.63;1.90;;;;;;;21.60;45.20;99311.56;1746823;80;21814;-67
2022/06/21 00:45:08;;;;;;;2.80;1.60;;;;;;;21.66;44.80;99309.55;1741838;80;20998;-68
2022/06/21 00:47:51;;;;;;;2.67;1.67;;;;;;;21.73;44.41;99308.31;1738148;80;21012;-67
2022/06/21 00:50:34;;;;;;;4.37;1.87;;;;;;;21.40;45.11;99308.10;1717405;82;21003;-67
2022/06/21 00:53:23;;;;;;;3.00;1.70;;;;;;;21.68;44.63;99309.95;1746497;82;21510;-67
2022/06/21 00:56:23;;;;;;;3.03;1.70;;;;;;;21.87;44.01;99305.62;1729940;80;21047;-69
2022/06/21 00:58:50;;;;;;;3.97;2.03;;;;;;;21.92;43.76;99304.75;1734971;81;20972;-67
2022/06/21 01:01:28;;;;;;;3.23;1.80;;;;;;;21.98;43.64;99307.92;1738251;81;20960;-67
2022/06/21 01:04:04;;;;;;;4.23;1.87;;;;;;;22.01;43.46;99296.33;1735447;81;21034;-67
2022/06/21 01:06:34;;;;;;;3.70;1.70;;;;;;;22.05;43.25;99290.39;1730656;81;21612;-67
2022/06/21 01:09:16;;;;;;;4.07;2.03;;;;;;;22.07;43.09;99286.72;1749118;82;21061;-67
2022/06/21 01:12:08;;;;;;;4.15;2.00;;;;;;;22.09;42.90;99291.22;1741002;82;21583;-67
2022/06/21 01:14:37;;;;;;;4.90;1.80;;;;;;;22.09;42.86;99284.42;1744880;80;20988;-67
2022/06/21 01:17:05;;;;;;;3.70;1.90;;;;;;;22.08;42.83;99285.59;1737215;81;21047;-68
2022/06/21 01:19:48;;;;;;;3.67;1.77;;;;;;;22.08;43.04;99278.78;1736642;81;21977;-67
2022/06/21 01:22:38;;;;;;;3.57;2.00;;;;;;;22.08;42.83;99279.34;1735563;81;21102;-67
2022/06/21 01:25:33;;;;;;;3.33;1.80;;;;;;;22.09;42.92;99272.19;1735294;81;21330;-67
2022/06/21 01:28:00;;;;;;;2.83;1.80;;;;;;;22.09;42.47;99269.47;1745096;82;20983;-67
2022/06/21 01:30:28;;;;;;;4.20;1.77;;;;;;;22.11;42.51;99260.94;1737923;81;21535;-68
2022/06/21 01:32:57;;;;;;;6.07;2.03;;;;;;;22.12;42.54;99263.30;1737977;81;21203;-68
2022/06/21 01:35:38;;;;;;;3.37;1.67;;;;;;;22.11;42.44;99259.58;1734320;81;20959;-68
2022/06/21 01:38:05;;;;;;;3.73;1.90;;;;;;;22.11;42.42;99257.66;1736894;82;21035;-68
2022/06/21 01:40:36;;;;;;;2.83;1.80;;;;;;;22.09;42.48;99258.59;1745587;82;21526;-67
2022/06/21 01:43:12;;;;;;;4.60;1.80;;;;;;;21.78;42.93;99255.02;1733952;81;21055;-68
2022/06/21 01:45:42;;;;;;;2.80;1.80;;;;;;;21.75;43.06;99265.26;1738295;81;21439;-68
2022/06/21 01:48:14;;;;;;;3.42;1.72;;;;;;;21.57;43.26;99262.80;1747562;81;21383;-69
2022/06/21 01:50:42;;;;;;;4.35;1.80;;;;;;;21.49;43.53;99251.62;1738550;81;22112;-67
2022/06/21 01:53:09;;;;;;;3.37;1.80;;;;;;;21.56;43.51;99250.38;1736665;81;21152;-67
2022/06/21 01:55:43;;;;;;;4.50;1.80;;;;;;;21.64;43.29;99247.97;1737675;81;21443;-67
2022/06/21 01:58:13;;;;;;;3.83;1.67;;;;;;;21.90;42.70;99239.66;1746618;82;21101;-67
2022/06/21 02:00:43;;;;;;;4.83;2.00;;;;;;;22.00;42.58;99247.19;1736030;81;21590;-67
2022/06/21 02:03:14;;;;;;;2.87;2.07;;;;;;;22.02;42.57;99240.81;1744259;80;21467;-66
2022/06/21 02:05:51;;;;;;;5.40;2.00;;;;;;;22.01;42.78;99240.03;1738007;81;21115;-67
2022/06/21 02:08:21;;;;;;;4.97;2.10;;;;;;;22.02;43.00;99240.81;1690412;82;20980;-66
2022/06/21 02:10:51;;;;;;;4.50;1.97;;;;;;;21.97;43.88;99235.68;1737622;81;21156;-67
2022/06/21 02:13:33;;;;;;;;;;;;;;;21.89;44.61;99225.86;1743892;81;21456;-67
2022/06/21 02:16:19;;;;;;;4.80;1.80;;;;;;;21.85;44.40;99221.73;1735931;80;20173;-67
2022/06/21 02:18:55;;;;;;;3.10;1.73;;;;;;;21.80;43.93;99217.95;1742489;81;21158;-67
2022/06/21 02:21:29;;;;;;;6.43;2.10;;;;;;;21.77;43.45;99230.33;1742539;81;21114;-67
2022/06/21 02:23:57;;;;;;;4.60;1.90;;;;;;;21.77;43.46;99226.83;1744570;80;21253;-67
2022/06/21 02:26:24;;;;;;;3.77;2.00;;;;;;;21.78;43.37;99229.75;1737551;82;21048;-68
2022/06/21 02:28:52;;;;;;;5.27;2.00;;;;;;;21.81;43.43;99222.23;1726526;80;21578;-68
2022/06/21 02:31:19;;;;;;;3.97;1.70;;;;;;;21.83;43.30;99224.02;1737784;81;21011;-68
2022/06/21 02:33:46;;;;;;;3.27;1.90;;;;;;;21.86;43.17;99220.58;1742602;80;21066;-68
2022/06/21 02:36:17;;;;;;;3.63;1.70;;;;;;;21.90;43.19;99219.27;1737144;81;21121;-68
2022/06/21 02:38:51;;;;;;;2.30;1.50;;;;;;;21.92;43.26;99208.24;1745817;82;21169;-67
2022/06/21 02:41:22;;;;;;;3.43;2.00;;;;;;;21.96;42.92;99211.79;1737860;81;21562;-68
2022/06/21 02:44:11;;;;;;;3.43;1.60;;;;;;;21.98;43.03;99210.05;1733945;81;20997;-68
2022/06/21 02:46:44;;;;;;;3.07;1.87;;;;;;;22.04;42.94;99203.73;1739824;81;21051;-67
2022/06/21 02:49:16;;;;;;;5.55;2.20;;;;;;;22.10;42.95;99198.19;1742090;81;21616;-67
2022/06/21 02:51:48;;;;;;;3.10;1.90;;;;;;;22.15;42.96;99191.89;1735403;81;20996;-67
2022/06/21 02:54:24;;;;;;;3.40;1.80;;;;;;;22.20;42.60;99194.28;1735822;81;21070;-67
2022/06/21 02:57:02;;;;;;;7.00;2.00;;;;;;;22.23;42.81;99189.47;1737286;81;21515;-67
2022/06/21 02:59:31;;;;;;;3.37;1.80;;;;;;;22.29;42.74;99176.92;1737555;81;21234;-67
2022/06/21 03:02:04;;;;;;;3.83;1.80;;;;;;;22.34;42.60;99176.03;1744475;80;21042;-67
2022/06/21 03:04:37;;;;;;;3.03;1.93;;;;;;;22.40;42.52;99172.38;1732924;81;21067;-68
2022/06/21 03:07:04;;;;;;;3.97;1.80;;;;;;;22.47;42.06;99176.00;1723256;81;21050;-68
2022/06/21 03:09:33;;;;;;;3.50;1.90;;;;;;;22.53;41.94;99169.63;1737445;81;21119;-67
2022/06/21 03:12:03;;;;;;;4.43;1.90;;;;;;;22.60;41.66;99159.41;1733346;82;21066;-68
2022/06/21 03:14:32;;;;;;;5.03;1.90;;;;;;;22.67;41.49;99164.37;1723535;82;21772;-67
2022/06/21 03:17:01;;;;;;;3.90;1.80;;;;;;;22.75;41.26;99165.80;1748151;81;21443;-68
2022/06/21 03:19:49;;;;;;;3.97;1.70;;;;;;;22.82;41.22;99156.34;1741302;81;21047;-68
2022/06/21 03:22:31;;;;;;;2.93;1.80;;;;;;;22.90;41.31;99155.25;1739129;81;21114;-66
2022/06/21 03:25:00;;;;;;;3.00;1.73;;;;;;;22.99;40.98;99154.40;1701898;82;21131;-67
2022/06/21 03:27:34;;;;;;;4.97;1.50;;;;;;;23.03;40.87;99144.31;1737706;81;21031;-67
2022/06/21 03:30:01;;;;;;;5.30;1.97;;;;;;;23.09;40.49;99143.41;1741101;81;21055;-67
2022/06/21 03:32:33;;;;;;;4.70;1.87;;;;;;;23.15;40.41;99141.91;1742339;80;21055;-68
2022/06/21 03:35:01;;;;;;;4.42;1.77;;;;;;;23.18;40.33;99143.30;1757975;80;21011;-67
2022/06/21 03:37:28;;;;;;;3.33;1.50;;;;;;;23.23;40.27;99142.74;1730216;81;21060;-67
2022/06/21 03:42:44;;;;;;;5.27;1.90;;;;;;;23.36;40.16;99143.46;1737310;80;21035;-67
2022/06/21 03:45:19;;;;;;;3.92;1.85;;;;;;;23.43;40.08;99148.73;1741560;81;21031;-67
2022/06/21 03:47:50;;;;;;;3.87;1.70;;;;;;;23.13;40.97;99146.38;1742080;81;21000;-67
2022/06/21 03:50:32;;;;;;;3.12;1.85;;;;;;;22.94;41.31;99156.12;1741327;81;21716;-67
2022/06/21 03:53:19;;;;;;;5.23;1.80;;;;;;;22.95;41.52;99146.78;1742565;81;21215;-66
2022/06/21 03:56:00;;;;;;;3.73;1.90;;;;;;;23.01;41.68;99146.65;1731348;81;21094;-67
2022/06/21 03:58:38;;;;;;;6.83;2.30;;;;;;;23.09;41.21;99140.09;1729724;81;21087;-67
2022/06/21 04:01:13;;;;;;;3.77;1.60;;;;;;;23.15;40.74;99141.91;1737070;81;21664;-67
2022/06/21 04:03:58;;;;;;;3.80;1.80;;;;;;;23.22;40.87;99136.52;1734954;81;21059;-68
2022/06/21 04:06:44;;;;;;;3.90;1.90;;;;;;;23.33;40.68;99142.05;1747484;82;21402;-68
2022/06/21 04:09:16;;;;;;;4.93;2.00;;;;;;;23.44;40.61;99141.56;1738679;81;21008;-67
2022/06/21 04:12:13;;;;;;;2.90;1.70;;;;;;;23.54;40.40;99146.89;1749865;80;21593;-67
2022/06/21 04:15:10;;;;;;;2.90;1.90;;;;;;;23.57;40.49;99133.88;1718059;82;21562;-68
2022/06/21 04:17:58;;;;;;;3.10;1.60;;;;;;;23.65;40.99;99123.98;1734978;81;21004;-67
2022/06/21 04:20:46;;;;;;;3.90;1.90;;;;;;;23.75;40.91;99127.19;1741972;80;21059;-67
2022/06/21 04:23:21;;;;;;;3.73;1.80;;;;;;;23.82;40.75;99130.77;1737973;81;21113;-67
2022/06/21 04:26:09;;;;;;;4.17;2.10;;;;;;;23.93;40.47;99132.18;1745866;82;21051;-68
2022/06/21 04:28:55;;;;;;;2.87;1.70;;;;;;;23.99;40.37;99121.11;1742211;82;21553;-67
2022/06/21 04:31:45;;;;;;;3.17;2.10;;;;;;;24.06;40.35;99123.87;1707816;82;21496;-66
2022/06/21 04:34:23;;;;;;;4.15;1.92;;;;;;;24.13;40.15;99111.44;1745310;80;21140;-66
2022/06/21 04:37:16;;;;;;;5.80;1.90;;;;;;;24.21;40.18;99111.65;1737175;81;21051;-68
2022/06/21 04:40:01;;;;;;;4.50;1.90;;;;;;;24.27;40.01;99108.75;1736095;81;21059;-67
2022/06/21 04:42:47;;;;;;;5.63;2.03;;;;;;;24.36;39.68;99109.77;1750406;82;21031;-68
2022/06/21 04:45:30;;;;;;;5.30;1.97;;;;;;;24.45;39.65;99111.00;1739589;80;20966;-68
2022/06/21 04:48:08;;;;;;;4.07;1.77;;;;;;;24.57;39.51;99107.89;1738537;82;21251;-68
2022/06/21 04:50:53;;;;;;;3.20;1.90;;;;;;;24.65;39.74;99111.44;1744456;80;21645;-68
2022/06/21 04:53:58;;;;;;;3.83;2.00;;;;;;;24.74;39.78;99109.09;1739154;81;21071;-68
2022/06/21 04:56:56;;;;;;;3.70;1.97;;;;;;;24.84;39.64;99097.99;1740871;82;21099;-68
2022/06/21 04:59:31;;;;;;;3.93;1.90;;;;;;;24.96;39.30;99095.48;1739501;81;21036;-67
2022/06/21 05:01:58;;;;;;;6.67;2.00;;;;;;;25.13;38.85;99100.78;1736103;81;21875;-67
2022/06/21 05:04:31;;;;;;;5.53;2.10;;;;;;;25.24;38.57;99104.30;1733896;80;21482;-68
2022/06/21 05:06:59;;;;;;;5.53;2.17;;;;;;;25.29;38.67;99095.70;1742508;81;21429;-68
2022/06/21 05:09:29;;;;;;;5.30;2.10;;;;;;;25.34;38.78;99078.92;1708466;82;21043;-68
2022/06/21 05:12:12;;;;;;;3.83;2.00;;;;;;;25.45;38.62;99085.14;1722523;81;21422;-68
2022/06/21 05:14:45;;;;;;;4.53;1.87;;;;;;;25.55;38.38;99085.52;1732438;81;21301;-67
2022/06/21 05:17:14;;;;;;;5.83;2.10;;;;;;;25.63;38.00;99087.05;1749556;81;21063;-68
2022/06/21 05:19:48;;;;;;;4.50;2.20;;;;;;;25.63;37.99;99081.58;1740530;81;21107;-68
2022/06/21 05:22:32;;;;;;;4.00;1.90;;;;;;;25.63;37.96;99077.48;1719550;83;21118;-67
2022/06/21 05:25:00;;;;;;;3.17;2.00;;;;;;;25.67;38.11;99074.95;1747918;81;21071;-67
2022/06/21 05:27:40;;;;;;;6.40;2.07;;;;;;;25.74;38.29;99071.41;1745569;81;21142;-67
2022/06/21 05:30:36;;;;;;;4.10;1.98;;;;;;;25.85;37.78;99065.34;1737429;82;20980;-68
2022/06/21 05:33:08;;;;;;;3.17;1.77;;;;;;;25.94;37.81;99065.70;1750642;81;21039;-68
2022/06/21 05:35:36;;;;;;;5.63;2.30;;;;;;;26.05;37.69;99061.55;1748586;80;21066;-67
2022/06/21 05:38:07;;;;;;;7.33;2.40;;;;;;;26.12;37.69;99063.47;1747644;80;21035;-66
2022/06/21 05:40:53;;;;;;;4.30;2.10;;;;;;;26.20;38.16;99057.58;1748580;81;21597;-67
2022/06/21 05:43:35;;;;;;;4.83;2.00;;;;;;;26.31;37.79;99052.63;1746150;81;21020;-68
2022/06/21 05:46:17;;;;;;;3.20;2.00;;;;;;;26.40;37.04;99049.64;1745470;80;21067;-67
2022/06/21 05:48:44;;;;;;;5.40;2.07;;;;;;;26.49;37.01;99047.06;1745786;80;21074;-67
2022/06/21 05:51:25;;;;;;;5.53;2.20;;;;;;;26.51;37.31;99040.02;1745726;80;21079;-67
2022/06/21 05:54:06;;;;;;;4.28;1.87;;;;;;;26.61;37.16;99042.49;1743660;80;21298;-67
2022/06/21 05:56:34;;;;;;;4.20;2.20;;;;;;;26.71;36.97;99036.16;1743892;80;21022;-67
2022/06/21 05:59:14;;;;;;;3.67;2.03;;;;;;;26.77;36.94;99032.41;1740259;80;21472;-67
2022/06/21 06:01:58;;;;;;;3.03;2.10;;;;;;;26.83;36.67;99028.83;1745382;80;21031;-68
2022/06/21 06:04:42;;;;;;;3.17;2.03;;;;;;;26.88;37.05;99028.98;1745964;82;21059;-68
2022/06/21 06:07:20;;;;;;;7.40;2.73;;;;;;;26.94;37.16;99026.59;1736283;81;22278;-67
2022/06/21 06:09:48;;;;;;;4.63;2.37;;;;;;;26.99;36.90;99024.80;1724244;81;21150;-67
2022/06/21 06:12:24;;;;;;;7.27;2.67;;;;;;;26.96;36.83;99024.23;1735468;81;20968;-68
2022/06/21 06:15:05;;;;;;;6.27;2.10;;;;;;;27.01;36.94;99014.97;1745660;81;21080;-68
2022/06/21 06:17:47;;;;;;;4.17;2.30;;;;;;;27.07;37.13;99002.98;1736989;80;21087;-67
2022/06/21 06:20:30;;;;;;;7.72;2.50;;;;;;;27.11;37.22;99005.89;1741685;80;21914;-68
2022/06/21 06:23:13;;;;;;;4.30;2.30;;;;;;;27.16;36.75;99018.99;1737425;81;21036;-68
2022/06/21 06:26:04;;;;;;;5.00;2.40;;;;;;;27.12;37.02;99003.33;1738189;81;21182;-69
2022/06/21 06:29:11;;;;;;;3.80;2.20;;;;;;;27.21;37.03;98987.02;1736930;81;20980;-67
2022/06/21 06:31:52;;;;;;;3.73;2.23;;;;;;;27.29;36.63;98990.66;1750958;82;21106;-68
2022/06/21 06:34:21;;;;;;;;;;;;;;;27.32;36.51;98978.88;1744560;81;21163;-67
2022/06/21 06:36:55;;;;;;;5.67;2.30;;;;;;;27.45;36.72;98985.20;1739479;81;20478;-67
2022/06/21 06:39:31;;;;;;;5.27;2.30;;;;;;;27.52;36.65;98990.02;1736204;81;20972;-69
2022/06/21 06:42:08;;;;;;;3.57;2.03;;;;;;;27.65;36.41;98993.00;1738051;81;21031;-67
2022/06/21 06:44:38;;;;;;;3.53;2.20;;;;;;;27.82;36.59;98995.36;1737775;81;21035;-67
2022/06/21 06:47:12;;;;;;;4.00;2.23;;;;;;;28.34;35.92;98997.02;1735791;81;21219;-67
2022/06/21 06:49:43;;;;;;;4.37;2.23;;;;;;;28.54;35.33;98997.91;1746169;82;21090;-68
2022/06/21 06:52:13;;;;;;;;;;;;;;;28.72;35.11;98985.24;1741221;81;21106;-68
2022/06/21 06:55:05;;;;;;;3.80;2.40;;;;;;;28.87;34.52;98989.31;1696955;81;20319;-67
2022/06/21 06:57:37;;;;;;;5.27;2.67;;;;;;;28.92;34.77;98981.98;1748940;80;21043;-68
2022/06/21 07:00:30;;;;;;;5.53;2.40;;;;;;;29.00;35.17;98985.39;1736857;81;22564;-67
2022/06/21 07:03:02;;;;;;;5.53;3.13;;;;;;;29.06;34.96;98991.96;1745547;80;21384;-67
2022/06/21 07:05:42;;;;;;;7.93;3.03;;;;;;;29.10;35.25;98989.92;1738152;81;21605;-68
2022/06/21 07:08:33;;;;;;;6.10;2.80;;;;;;;29.13;35.08;99005.58;1737714;81;21847;-68
2022/06/21 07:11:03;;;;;;;7.17;2.92;;;;;;;29.05;34.80;99000.02;1745268;80;21162;-68
2022/06/21 07:13:30;;;;;;;5.23;2.97;;;;;;;28.93;35.08;98982.75;1736352;81;21977;-68
2022/06/21 07:16:02;;;;;;;5.63;3.20;;;;;;;28.92;35.43;98981.98;1743388;80;21047;-66
2022/06/21 07:18:43;;;;;;;8.47;3.33;;;;;;;28.93;34.86;98975.27;1731556;81;21494;-68
2022/06/21 07:21:10;;;;;;;7.35;3.08;;;;;;;28.71;35.55;98977.60;1746072;80;21055;-68
2022/06/21 07:23:37;;;;;;;4.83;3.03;;;;;;;28.45;36.21;98981.94;1736944;81;21496;-69
2022/06/21 07:26:19;;;;;;;5.43;3.13;;;;;;;28.61;36.16;98975.81;1747070;81;20996;-68
2022/06/21 07:28:53;;;;;;;7.73;3.27;;;;;;;29.13;35.63;98980.83;1742928;81;21036;-68
2022/06/21 07:31:28;;;;;;;4.37;2.90;;;;;;;29.34;35.02;98973.38;1751061;82;21042;-68
2022/06/21 07:34:26;;;;;;;5.30;3.13;;;;;;;29.46;35.42;98978.25;1733484;81;21094;-69
2022/06/21 07:37:03;;;;;;;7.10;3.40;;;;;;;29.65;35.53;98971.22;1735712;81;21102;-69
2022/06/21 07:39:36;;;;;;;7.33;3.90;;;;;;;29.83;34.64;98966.70;1737984;81;21160;-69
2022/06/21 07:42:22;;;;;;;5.60;3.03;;;;;;;29.79;34.31;98966.78;1737426;81;21549;-67
2022/06/21 07:44:59;;;;;;;7.37;3.47;;;;;;;29.99;34.41;98967.34;1721922;82;21045;-68
2022/06/21 07:48:05;;;;;;;7.67;3.60;;;;;;;30.11;34.91;98961.19;1742470;80;21081;-67
2022/06/21 07:50:44;;;;;;;4.20;3.00;;;;;;;30.23;34.57;98964.65;1734845;81;21031;-69
2022/06/21 07:53:30;;;;;;;5.87;3.23;;;;;;;30.23;34.31;98970.77;1743271;80;21767;-68
2022/06/21 07:56:17;;;;;;;5.87;3.70;;;;;;;30.36;34.00;98974.38;1733502;80;21062;-67
2022/06/21 07:59:24;;;;;;;6.23;3.80;;;;;;;30.48;33.73;98970.95;1733920;81;21571;-68
2022/06/21 08:08:15;;;;;;;5.93;3.30;;;;;;;30.68;33.48;98959.83;1737067;81;21206;-68
2022/06/21 08:10:48;;;;;;;;;;;;;;;30.85;33.45;98959.23;1737971;81;20993;-68
2022/06/21 08:13:16;;;;;;;6.87;3.30;;;;;;;30.79;33.73;98960.36;1737270;82;20344;-68
2022/06/21 08:15:48;;;;;;;6.50;3.40;;;;;;;30.79;34.20;98956.22;1737669;81;21066;-68
2022/06/21 08:18:32;;;;;;;10.87;3.90;;;;;;;30.38;35.28;98951.33;1737828;81;21140;-67
2022/06/21 08:21:07;;;;;;;5.47;3.10;;;;;;;30.46;35.46;98943.66;1743978;82;21163;-68
2022/06/21 08:23:45;;;;;;;8.43;3.77;;;;;;;30.60;34.67;98945.47;1737827;81;21056;-67
2022/06/21 08:26:21;;;;;;;5.67;3.13;;;;;;;30.66;35.04;98947.69;1711696;81;21062;-67
2022/06/21 08:29:08;;;;;;;8.03;3.53;;;;;;;30.74;35.36;98942.18;1737650;81;21114;-68
2022/06/21 08:31:39;;;;;;;5.00;2.87;;;;;;;30.85;35.12;98942.69;1737872;81;21063;-67
2022/06/21 08:34:23;;;;;;;6.50;3.83;;;;;;;31.02;35.37;98944.20;1738591;81;21801;-68
2022/06/21 08:37:08;;;;;;;7.43;3.53;;;;;;;31.12;34.32;98942.97;1746413;82;21071;-68
2022/06/21 08:40:05;;;;;;;7.23;3.57;;;;;;;31.16;34.54;98925.71;1717690;81;21079;-67
2022/06/21 08:42:57;;;;;;;7.37;3.70;;;;;;;31.33;34.38;98931.38;1737917;81;21051;-68
2022/06/21 08:45:47;;;;;;;6.13;3.57;;;;;;;31.49;34.30;98929.13;1735904;81;21030;-68
2022/06/21 08:49:02;;;;;;;6.97;3.67;;;;;;;31.49;34.23;98930.52;1736387;81;21052;-67
2022/06/21 08:52:04;;;;;;;6.77;3.67;;;;;;;31.40;34.07;98933.16;1736232;81;21098;-68
2022/06/21 08:54:48;;;;;;;5.37;3.60;;;;;;;31.39;34.14;98936.53;1734674;81;21467;-68
2022/06/21 08:57:21;;;;;;;5.33;3.70;;;;;;;31.48;34.11;98928.98;1729303;81;21063;-68
2022/06/21 09:00:17;;;;;;;7.33;3.70;;;;;;;31.62;34.07;98925.79;1735514;81;21000;-68
2022/06/21 09:03:03;;;;;;;3.93;3.33;;;;;;;31.58;33.68;98925.13;1746420;81;21135;-68
2022/06/21 09:06:06;;;;;;;6.90;3.70;;;;;;;31.62;33.79;98918.89;1736434;81;21498;-68
2022/06/21 09:09:06;;;;;;;6.20;3.72;;;;;;;31.72;33.46;98912.30;1712715;83;21075;-67
2022/06/21 09:11:54;;;;;;;8.45;3.70;;;;;;;31.85;33.53;98915.04;1727048;80;21031;-67
2022/06/21 09:14:30;;;;;;;8.03;3.80;;;;;;;31.91;33.82;98913.92;1746003;82;21023;-68
2022/06/21 09:17:11;;;;;;;6.00;3.40;;;;;;;31.91;34.01;98913.30;1725899;81;21675;-68
2022/06/21 09:20:08;;;;;;;6.83;4.35;;;;;;;31.95;33.74;98914.58;1737496;81;21248;-67
2022/06/21 09:23:05;;;;;;;6.12;3.70;;;;;;;31.91;33.56;98910.55;1735319;81;21079;-67
2022/06/21 09:25:44;;;;;;;7.67;3.80;;;;;;;31.86;34.04;98904.19;1743480;81;21608;-68
2022/06/21 09:28:38;;;;;;;6.05;3.27;;;;;;;32.30;32.91;98905.00;1735240;81;20953;-67
2022/06/21 09:31:29;;;;;;;6.03;3.72;;;;;;;32.22;33.48;98895.56;1735583;81;21925;-67
2022/06/21 09:34:00;;;;;;;9.05;4.40;;;;;;;32.05;34.48;98890.59;1736479;81;20992;-66
2022/06/21 09:36:48;;;;;;;6.70;3.85;;;;;;;32.09;34.49;98889.90;1742673;81;21041;-67
2022/06/21 09:39:34;;;;;;;6.35;3.80;;;;;;;32.10;33.68;98891.44;1693990;81;21074;-69
2022/06/21 09:42:19;;;;;;;6.92;4.22;;;;;;;31.69;34.55;98884.20;1724402;82;20940;-67
2022/06/21 09:45:28;;;;;;;8.75;3.87;;;;;;;32.17;34.01;98880.15;1681238;81;21154;-68
2022/06/21 09:48:33;;;;;;;6.22;3.95;;;;;;;32.56;33.58;98873.34;1626398;88;21066;-68
2022/06/21 09:51:08;;;;;;;6.55;3.67;;;;;;;32.83;32.16;98874.78;1628860;88;21087;-68
2022/06/21 09:53:49;;;;;;;5.67;3.42;;;;;;;33.09;32.51;98861.62;1700137;81;20992;-69
2022/06/21 09:56:28;;;;;;;5.95;3.85;;;;;;;33.30;31.57;98865.00;1729396;80;20992;-67
2022/06/21 09:59:14;;;;;;;6.28;3.47;;;;;;;33.28;31.04;98852.22;1740839;81;21071;-69
2022/06/21 10:01:49;;;;;;;7.67;4.00;;;;;;;33.31;31.12;98843.01;1747826;81;21570;-69
2022/06/21 10:04:32;;;;;;;6.70;3.83;;;;;;;32.87;32.23;98846.39;1727962;81;21000;-67
2022/06/21 10:07:41;;;;;;;8.40;4.00;;;;;;;32.65;32.38;98853.31;1708522;80;21003;-68
2022/06/21 10:10:26;;;;;;;5.37;3.80;;;;;;;32.87;32.27;98843.63;1699042;82;21065;-69
2022/06/21 10:13:19;;;;;;;6.67;4.00;;;;;;;32.50;32.81;98838.43;1738432;81;21080;-68
2022/06/21 10:16:19;;;;;;;6.72;4.10;;;;;;;32.52;32.57;98836.00;1711903;82;20992;-68
2022/06/21 10:19:08;;;;;;;5.90;3.58;;;;;;;32.05;33.65;98836.16;1692924;81;21043;-68
2022/06/21 10:21:52;;;;;;;6.20;3.42;;;;;;;32.01;34.01;98832.72;1737791;81;21597;-68
2022/06/21 10:24:40;;;;;;;6.55;3.47;;;;;;;32.08;34.20;98825.58;1736347;81;20988;-68
2022/06/21 10:27:18;;;;;;;6.50;3.33;;;;;;;32.37;32.97;98813.57;1745887;82;21236;-67
2022/06/21 10:30:28;;;;;;;6.42;3.40;;;;;;;32.44;33.38;98797.54;1737138;81;21638;-69
2022/06/21 10:33:18;;;;;;;6.20;3.50;;;;;;;32.48;32.43;98802.17;1738106;81;21578;-68
2022/06/21 10:36:13;;;;;;;5.53;3.50;;;;;;;32.38;32.54;98797.95;1738166;81;21119;-67
2022/06/21 10:38:52;;;;;;;8.08;3.20;;;;;;;32.06;32.75;98814.22;1735129;81;21078;-68
2022/06/21 10:44:50;;;;;;;6.53;3.10;;;;;;;31.14;34.37;98810.95;1733976;81;21525;-68
2022/06/21 10:47:42;;;;;;;9.15;3.45;;;;;;;30.64;35.90;98817.23;1746441;80;26857;-68
2022/06/21 10:50:33;;;;;;;9.27;4.23;;;;;;;30.78;36.72;98834.02;1738434;81;21071;-68
2022/06/21 10:53:16;;;;;;;10.87;4.80;;;;;;;30.56;37.74;98834.55;1738088;81;21251;-68
2022/06/21 11:01:17;;;;;;;8.53;4.13;;;;;;;29.04;41.50;98850.03;1745897;82;21019;-68
2022/06/21 11:02:16;;;;;;;17.77;5.97;;;;;;;28.41;43.40;98865.13;1733829;81;21059;-69
2022/06/21 11:05:03;;;;;;;18.27;5.90;;;;;;;28.22;47.62;98894.80;1728824;80;76341;-75
2022/06/21 11:08:00;;;;;;;12.83;5.10;;;;;;;27.06;52.92;98930.19;1709297;84;21107;-77
2022/06/21 11:10:31;;;;;;;13.27;6.03;;;;;;;26.16;55.59;98952.06;1681174;85;21620;-77
2022/06/21 11:13:11;;;;;;;13.97;5.80;;;;;;;25.19;59.79;98949.72;1690058;82;21134;-77
2022/06/21 11:15:52;;;;;;;12.73;6.27;;;;;;;24.34;63.51;98937.64;1703402;82;21076;-77
2022/06/21 11:18:44;;;;;;;8.90;5.07;;;;;;;24.07;65.61;98911.31;1710502;84;21558;-78
2022/06/21 11:21:50;;;;;;;12.47;5.90;;;;;;;24.00;67.21;98905.85;1708473;82;21072;-79
2022/06/21 11:24:45;;;;;;;10.27;5.63;;;;;;;23.95;68.28;98902.13;1705866;82;22251;-79
2022/06/21 11:27:55;;;;;;;10.63;6.07;;;;;;;24.46;67.23;98902.41;1704481;82;21056;-79
2022/06/21 11:30:50;;;;;;;8.47;5.30;;;;;;;24.60;66.54;98909.02;1648737;85;21034;-79
2022/06/21 11:33:56;;;;;;;11.30;5.90;;;;;;;24.63;65.63;98913.70;1674531;84;21083;-79
2022/06/21 11:36:49;;;;;;;10.17;5.70;;;;;;;24.69;65.67;98931.25;1635956;86;21032;-80
2022/06/21 11:39:51;;;;;;;9.83;5.77;;;;;;;24.70;65.48;98933.58;1664193;84;21131;-79
2022/06/21 11:42:27;;;;;;;9.98;5.67;;;;;;;24.70;64.63;98931.44;1662324;84;21066;-80
2022/06/21 11:45:21;;;;;;;8.93;5.50;;;;;;;24.67;64.38;98929.48;1660696;84;21193;-78
2022/06/21 11:48:44;;;;;;;12.20;7.10;;;;;;;24.63;63.99;98932.22;1660347;84;21028;-80
2022/06/21 11:51:19;;;;;;;9.17;6.93;;;;;;;24.55;63.84;98935.55;1661583;84;21427;-79
2022/06/21 11:54:02;;;;;;;9.20;6.97;;;;;;;24.36;63.79;98941.36;1660555;86;21284;-77
2022/06/21 11:57:13;;;;;;;11.47;7.60;;;;;;;24.19;63.56;98959.27;1659008;86;21561;-76
2022/06/21 11:59:48;;;;;;;13.00;6.10;;;;;;;24.20;64.25;98966.87;1648916;87;21021;-78
2022/06/21 12:02:48;;;;;;;12.67;3.80;;;;;;;23.87;64.31;99059.49;1647893;85;21172;-73
2022/06/21 12:05:43;;;;;;;12.20;3.47;;;;;;;23.11;65.54;99067.56;1646003;86;21029;-76
2022/06/21 12:08:29;;;;;;;15.43;2.67;;;;;;;21.65;68.70;99112.89;1644680;87;21142;-77
2022/06/21 12:11:16;;;;;;;9.13;2.53;;;;;;;21.00;71.24;99053.50;1641772;87;20985;-76
2022/06/21 12:13:52;;;;;;;6.10;1.90;;;;;;;20.58;73.16;99051.62;1643718;87;21579;-78
2022/06/21 12:16:34;;;;;;;8.93;1.90;;;;;;;20.29;74.48;99090.95;1643106;87;21129;-76
2022/06/21 12:19:07;;;;;;;9.25;2.75;;;;;;;20.07;76.04;99101.95;1645342;86;21210;-76
2022/06/21 12:21:46;;;;;;;3.07;1.50;;;;;;;19.90;76.91;99113.97;1644072;87;22170;-79
2022/06/21 12:24:16;;;;;;;8.70;1.80;;;;;;;19.75;77.77;99127.58;1644688;86;21111;-77
2022/06/21 12:26:43;;;;;;;6.57;1.73;;;;;;;19.64;78.66;99156.56;1644302;87;21580;-79
2022/06/21 12:29:17;;;;;;;6.47;1.73;;;;;;;19.54;79.27;99165.17;1643251;87;21340;-77
2022/06/21 12:31:52;;;;;;;5.20;1.50;;;;;;;19.41;80.09;99149.61;1644513;87;21149;-80
2022/06/21 12:34:40;;;;;;;4.23;1.53;;;;;;;19.34;80.52;99165.66;1644353;86;21579;-78
2022/06/21 12:37:23;;;;;;;3.23;1.20;;;;;;;19.25;80.92;99159.66;1644395;87;22258;-80
2022/06/21 12:39:55;;;;;;;2.63;1.13;;;;;;;19.10;80.23;99169.31;1626292;87;20987;-75
2022/06/21 12:42:51;;;;;;;3.23;1.37;;;;;;;18.91;79.40;99168.63;1627785;87;21772;-77
2022/06/21 12:46:13;;;;;;;2.60;1.50;;;;;;;18.81;79.53;99187.28;1644751;87;21555;-76
2022/06/21 12:49:10;;;;;;;1.95;1.05;;;;;;;18.73;79.97;99192.50;1643394;87;21705;-78
2022/06/21 12:52:03;;;;;;;2.67;1.00;;;;;;;18.69;80.32;99198.89;1649742;85;21070;-78
2022/06/21 12:54:47;;;;;;;5.43;1.80;;;;;;;18.65;80.55;99181.80;1676933;85;21135;-78